createdAt,value
2018-07-20T00:02:36.915Z,77.40
2018-07-20T00:05:06.376Z,77.40
2018-07-20T00:07:35.404Z,77.90
2018-07-20T00:10:04.456Z,78.00
2018-07-20T00:12:33.299Z,78.40
2018-07-20T00:15:02.177Z,78.80
2018-07-20T00:17:31.028Z,78.90
2018-07-20T00:19:59.872Z,79.10
2018-07-20T00:22:28.737Z,78.80
2018-07-20T00:27:26.200Z,79.60
2018-07-20T00:29:55.064Z,79.70
2018-07-20T00:32:23.935Z,79.90
2018-07-20T00:34:52.781Z,79.90
2018-07-20T00:37:21.668Z,79.70
2018-07-20T00:39:50.512Z,80.80
2018-07-20T00:42:19.400Z,80.20
2018-07-20T00:44:48.248Z,80.10
2018-07-20T00:47:17.118Z,80.10
2018-07-20T00:49:45.993Z,80.60
2018-07-20T00:52:14.835Z,81.70
2018-07-20T00:54:43.899Z,81.40
2018-07-20T00:57:12.760Z,81.40
2018-07-20T00:59:41.617Z,81.70
2018-07-20T01:02:10.480Z,81.60
2018-07-20T01:04:39.333Z,81.50
2018-07-20T01:07:08.220Z,81.70
2018-07-20T01:09:37.140Z,81.00
2018-07-20T01:12:06.212Z,82.00
2018-07-20T01:14:35.117Z,82.00
2018-07-20T01:17:03.988Z,82.00
2018-07-20T01:19:32.870Z,82.60
2018-07-20T01:22:01.766Z,82.60
2018-07-20T01:24:30.656Z,82.90
2018-07-20T01:26:59.527Z,82.70
2018-07-20T01:29:28.473Z,82.40
2018-07-20T01:31:57.288Z,82.70
2018-07-20T01:34:26.312Z,83.30
2018-07-20T01:36:55.155Z,84.60
2018-07-20T01:39:24.141Z,85.10
2018-07-20T01:41:52.967Z,87.10
2018-07-20T01:44:21.922Z,88.90
2018-07-20T01:46:50.748Z,89.40
2018-07-20T01:49:19.602Z,89.70
2018-07-20T01:51:48.502Z,90.50
2018-07-20T01:54:17.348Z,90.80
2018-07-20T01:56:46.224Z,91.20
2018-07-20T01:59:15.100Z,92.10
2018-07-20T02:01:43.956Z,92.30
2018-07-20T02:04:12.816Z,92.60
2018-07-20T02:06:41.661Z,92.90
2018-07-20T02:09:11.189Z,93.10
2018-07-20T02:11:40.063Z,93.70
2018-07-20T02:14:08.936Z,94.20
2018-07-20T02:16:37.779Z,94.60
2018-07-20T02:19:06.656Z,95.10
2018-07-20T02:21:35.620Z,95.20
2018-07-20T02:24:04.427Z,95.80
2018-07-20T02:26:33.295Z,95.80
2018-07-20T02:29:02.192Z,96.30
2018-07-20T02:31:31.052Z,96.40
2018-07-20T02:33:59.899Z,96.30
2018-07-20T02:36:28.779Z,95.90
2018-07-20T02:41:26.192Z,94.90
2018-07-20T02:43:55.088Z,95.00
2018-07-20T02:46:24.008Z,94.80
2018-07-20T02:48:52.864Z,95.10
2018-07-20T02:51:21.733Z,95.80
2018-07-20T02:53:50.636Z,95.90
2018-07-20T02:56:19.508Z,96.20
2018-07-20T02:58:48.453Z,96.50
2018-07-20T03:01:17.284Z,96.50
2018-07-20T03:03:46.155Z,96.60
2018-07-20T03:08:43.552Z,98.00
2018-07-20T03:11:12.436Z,98.50
2018-07-20T03:13:41.280Z,99.20
2018-07-20T03:16:10.180Z,99.30
2018-07-20T03:18:39.069Z,99.80
2018-07-20T03:21:08.017Z,99.40
2018-07-20T03:23:36.776Z,99.70
2018-07-20T03:26:05.988Z,99.20
2018-07-20T03:28:34.876Z,99.10
2018-07-20T03:31:03.757Z,98.90
2018-07-20T03:33:32.725Z,99.30
2018-07-20T03:36:01.573Z,99.10
2018-07-20T03:38:30.424Z,99.30
2018-07-20T03:40:59.401Z,99.60
2018-07-20T03:43:28.237Z,99.20
2018-07-20T03:45:57.113Z,98.90
2018-07-20T03:48:25.969Z,98.50
2018-07-20T03:50:54.859Z,98.20
2018-07-20T03:53:23.720Z,98.30
2018-07-20T03:55:52.588Z,98.20
2018-07-20T03:58:21.533Z,98.00
2018-07-20T04:00:50.352Z,98.00
2018-07-20T04:05:47.764Z,98.30
2018-07-20T04:08:16.616Z,98.30
2018-07-20T04:13:14.016Z,98.80
2018-07-20T04:15:42.924Z,98.50
2018-07-20T04:18:11.808Z,98.70
2018-07-20T04:20:40.664Z,97.90
2018-07-20T04:23:09.626Z,97.10
2018-07-20T04:25:38.459Z,96.60
2018-07-20T04:28:07.329Z,96.40
2018-07-20T04:30:36.211Z,96.40
2018-07-20T04:33:05.180Z,96.80
2018-07-20T04:35:34.056Z,96.80
2018-07-20T04:38:02.919Z,96.70
2018-07-20T04:40:31.829Z,96.30
2018-07-20T04:43:00.688Z,96.10
2018-07-20T04:45:29.627Z,95.30
2018-07-20T04:47:58.537Z,94.60
2018-07-20T04:50:27.401Z,93.80
2018-07-20T04:52:56.321Z,93.10
2018-07-20T04:55:25.164Z,92.80
2018-07-20T04:57:54.102Z,92.80
2018-07-20T05:00:22.940Z,92.40
2018-07-20T05:02:51.848Z,92.50
2018-07-20T05:05:20.720Z,92.10
2018-07-20T05:07:49.675Z,91.70
2018-07-20T05:10:18.536Z,90.60
2018-07-20T05:12:47.391Z,88.10
2018-07-20T05:15:16.276Z,84.50
2018-07-20T05:17:45.136Z,86.00
2018-07-20T05:20:14.019Z,84.50
2018-07-20T05:22:42.887Z,83.50
2018-07-20T05:25:11.764Z,82.50
2018-07-20T05:27:40.636Z,82.00
2018-07-20T05:30:09.519Z,82.40
2018-07-20T05:32:38.393Z,82.50
2018-07-20T05:35:07.232Z,83.50
2018-07-20T05:37:36.105Z,86.10
2018-07-20T05:40:05.048Z,89.90
2018-07-20T05:42:33.891Z,91.70
2018-07-20T05:45:02.745Z,93.00
2018-07-20T05:47:31.665Z,93.90
2018-07-20T05:50:00.537Z,94.40
2018-07-20T05:52:29.387Z,94.60
2018-07-20T05:54:58.277Z,94.00
2018-07-20T05:57:27.150Z,91.60
2018-07-20T05:59:55.996Z,86.50
2018-07-20T06:04:53.432Z,84.90
2018-07-20T06:07:22.312Z,82.10
2018-07-20T06:09:51.188Z,77.70
2018-07-20T06:12:20.120Z,75.80
2018-07-20T06:14:48.945Z,71.60
2018-07-20T06:17:17.811Z,71.70
2018-07-20T06:22:15.266Z,70.90
2018-07-20T06:24:44.165Z,68.50
2018-07-20T06:27:13.044Z,62.70
2018-07-20T06:29:41.949Z,63.80
2018-07-20T06:32:10.747Z,62.50
2018-07-20T06:34:39.619Z,62.20
2018-07-20T06:37:08.492Z,64.50
2018-07-20T06:39:37.376Z,66.80
2018-07-20T06:42:06.242Z,66.50
2018-07-20T06:44:35.161Z,65.10
2018-07-20T06:47:04.061Z,61.80
2018-07-20T06:49:32.925Z,63.40
2018-07-20T06:52:01.875Z,63.70
2018-07-20T06:54:30.759Z,66.00
2018-07-20T06:56:59.643Z,67.90
2018-07-20T06:59:28.548Z,69.50
2018-07-20T07:01:57.407Z,72.10
2018-07-20T07:04:26.308Z,73.60
2018-07-20T07:06:55.176Z,75.00
2018-07-20T07:09:24.108Z,76.30
2018-07-20T07:11:52.911Z,77.70
2018-07-20T07:14:21.808Z,77.40
2018-07-20T07:19:19.258Z,71.20
2018-07-20T07:21:48.087Z,64.70
2018-07-20T07:24:16.972Z,62.00
2018-07-20T07:26:45.867Z,62.30
2018-07-20T07:29:14.888Z,58.90
2018-07-20T07:31:43.668Z,59.60
2018-07-20T07:34:12.547Z,57.70
2018-07-20T07:36:41.408Z,53.10
2018-07-20T07:39:11.871Z,51.70
2018-07-20T07:41:41.089Z,51.20
2018-07-20T07:44:09.940Z,53.90
2018-07-20T07:46:38.932Z,53.60
2018-07-20T07:51:36.716Z,53.60
2018-07-20T07:56:34.116Z,52.10
2018-07-20T07:59:03.011Z,52.20
2018-07-20T08:01:31.893Z,53.00
2018-07-20T08:04:00.760Z,50.40
2018-07-20T08:08:58.210Z,49.50
2018-07-20T08:11:27.064Z,48.90
2018-07-20T08:13:55.916Z,49.60
2018-07-20T08:18:53.312Z,47.20
2018-07-20T08:21:22.372Z,47.30
2018-07-20T08:23:51.289Z,48.00
2018-07-20T08:26:20.236Z,48.30
2018-07-20T08:28:49.155Z,46.80
2018-07-20T08:31:18.100Z,46.50
2018-07-20T08:33:46.958Z,46.10
2018-07-20T08:36:15.861Z,45.30
2018-07-20T08:38:44.769Z,44.10
2018-07-20T08:41:13.705Z,46.00
2018-07-20T08:43:42.648Z,44.20
2018-07-20T08:46:11.528Z,43.40
2018-07-20T08:48:40.434Z,43.70
2018-07-20T08:51:09.325Z,43.10
2018-07-20T08:53:38.251Z,42.50
2018-07-20T08:56:07.064Z,43.30
2018-07-20T08:58:36.036Z,43.50
2018-07-20T09:01:04.858Z,43.10
2018-07-20T09:03:33.783Z,43.20
2018-07-20T09:06:02.623Z,42.40
2018-07-20T09:11:00.008Z,41.30
2018-07-20T09:13:28.959Z,41.70
2018-07-20T09:18:26.272Z,41.40
2018-07-20T09:20:55.176Z,41.50
2018-07-20T09:23:24.092Z,42.20
2018-07-20T09:25:52.953Z,44.00
2018-07-20T09:28:21.858Z,45.60
2018-07-20T09:30:50.672Z,45.80
2018-07-20T09:33:19.532Z,45.10
2018-07-20T09:35:48.424Z,45.80
2018-07-20T09:38:17.346Z,45.70
2018-07-20T09:40:46.236Z,45.20
2018-07-20T09:43:15.080Z,45.60
2018-07-20T09:45:43.955Z,47.70
2018-07-20T09:48:12.936Z,45.60
2018-07-20T09:50:41.895Z,44.30
2018-07-20T09:53:10.800Z,45.60
2018-07-20T09:55:39.724Z,43.50
2018-07-20T10:00:42.161Z,43.10
2018-07-20T10:03:11.020Z,42.20
2018-07-20T10:08:08.412Z,44.00
2018-07-20T10:10:37.259Z,44.90
2018-07-20T10:13:06.284Z,46.20
2018-07-20T10:15:35.242Z,47.70
2018-07-20T10:18:04.124Z,45.50
2018-07-20T10:20:33.040Z,47.30
2018-07-20T10:23:02.194Z,45.70
2018-07-20T10:25:31.578Z,44.50
2018-07-20T10:28:00.377Z,44.80
2018-07-20T10:30:29.306Z,44.80
2018-07-20T10:32:58.176Z,45.30
2018-07-20T10:35:27.053Z,45.00
2018-07-20T10:37:55.956Z,44.10
2018-07-20T10:40:26.756Z,44.80
2018-07-20T10:42:57.449Z,44.00
2018-07-20T10:45:26.596Z,45.20
2018-07-20T10:47:55.772Z,45.70
2018-07-20T10:50:24.664Z,47.80
2018-07-20T10:55:22.120Z,45.30
2018-07-20T10:57:51.000Z,46.40
2018-07-20T11:00:19.890Z,46.40
2018-07-20T11:02:48.744Z,46.60
2018-07-20T11:05:17.597Z,47.00
2018-07-20T11:07:46.565Z,48.90
2018-07-20T11:10:15.455Z,47.20
2018-07-20T11:12:44.279Z,47.90
2018-07-20T11:17:41.687Z,46.50
2018-07-20T11:20:10.560Z,47.40
2018-07-20T11:22:39.407Z,46.90
2018-07-20T11:25:08.274Z,47.20
2018-07-20T11:27:37.152Z,45.80
2018-07-20T11:30:06.028Z,46.60
2018-07-20T11:32:34.891Z,46.60
2018-07-20T11:35:03.856Z,47.30
2018-07-20T11:37:32.784Z,48.80
2018-07-20T11:40:01.665Z,46.90
2018-07-20T11:42:30.528Z,47.20
2018-07-20T11:44:59.385Z,47.70
2018-07-20T11:47:28.235Z,47.50
2018-07-20T11:49:57.096Z,48.10
2018-07-20T11:52:25.995Z,47.40
2018-07-20T11:54:54.828Z,46.90
2018-07-20T11:57:23.713Z,47.00
2018-07-20T11:59:52.560Z,48.30
2018-07-20T12:02:21.452Z,48.10
2018-07-20T12:04:50.304Z,48.20
2018-07-20T12:07:19.149Z,47.50
2018-07-20T12:09:48.025Z,49.00
2018-07-20T12:12:16.867Z,46.90
2018-07-20T12:14:45.769Z,46.60
2018-07-20T12:17:14.663Z,47.80
2018-07-20T12:19:43.547Z,47.90
2018-07-20T12:22:12.484Z,47.40
2018-07-20T12:24:41.316Z,49.10
2018-07-20T12:27:10.175Z,48.10
2018-07-20T12:29:39.049Z,48.30
2018-07-20T12:32:07.942Z,47.10
2018-07-20T12:34:36.776Z,46.70
2018-07-20T12:37:05.692Z,46.90
2018-07-20T12:39:34.584Z,47.70
2018-07-20T12:42:03.507Z,47.00
2018-07-20T12:44:32.388Z,47.00
2018-07-20T12:47:01.234Z,46.70
2018-07-20T12:49:30.182Z,47.10
2018-07-20T12:51:59.071Z,47.10
2018-07-20T12:54:27.891Z,48.10
2018-07-20T12:59:25.264Z,47.60
2018-07-20T13:01:54.152Z,48.30
2018-07-20T13:04:23.045Z,47.90
2018-07-20T13:06:52.013Z,48.20
2018-07-20T13:09:20.820Z,48.90
2018-07-20T13:11:49.750Z,47.30
2018-07-20T13:14:18.556Z,47.40
2018-07-20T13:16:47.415Z,48.10
2018-07-20T13:19:16.272Z,48.40
2018-07-20T13:21:45.154Z,46.90
2018-07-20T13:24:14.045Z,47.00
2018-07-20T13:26:42.868Z,47.90
2018-07-20T13:29:11.751Z,46.90
2018-07-20T13:31:40.615Z,47.00
2018-07-20T13:34:09.464Z,48.10
2018-07-20T13:36:38.307Z,46.80
2018-07-20T13:39:09.077Z,46.10
2018-07-20T13:41:38.256Z,47.10
2018-07-20T13:44:07.137Z,48.30
2018-07-20T13:46:36.111Z,48.30
2018-07-20T13:49:05.233Z,47.40
2018-07-20T13:54:02.792Z,47.70
2018-07-20T13:56:31.807Z,46.70
2018-07-20T13:59:00.709Z,46.80
2018-07-20T14:01:29.661Z,46.20
2018-07-20T14:03:58.711Z,46.90
2018-07-20T14:06:27.612Z,45.00
2018-07-20T14:08:56.544Z,45.90
2018-07-20T14:11:25.481Z,45.50
2018-07-20T14:13:54.359Z,46.60
2018-07-20T14:16:23.318Z,47.30
2018-07-20T14:18:52.237Z,46.90
2018-07-20T14:21:21.207Z,47.90
2018-07-20T14:23:50.096Z,47.40
2018-07-20T14:26:18.962Z,47.90
2018-07-20T14:28:47.811Z,49.00
2018-07-20T14:31:16.695Z,48.90
2018-07-20T14:36:14.123Z,49.70
2018-07-20T14:38:43.135Z,49.90
2018-07-20T14:41:11.969Z,48.90
2018-07-20T14:43:40.812Z,48.90
2018-07-20T14:46:09.669Z,47.40
2018-07-20T14:48:38.597Z,48.00
2018-07-20T14:51:07.435Z,48.00
2018-07-20T14:53:36.293Z,49.10
2018-07-20T14:58:33.749Z,49.00
2018-07-20T15:01:02.639Z,49.10
2018-07-20T15:03:31.532Z,49.10
2018-07-20T15:06:00.376Z,49.70
2018-07-20T15:08:29.347Z,50.00
2018-07-20T15:10:58.163Z,49.40
2018-07-20T15:13:27.032Z,49.30
2018-07-20T15:15:55.987Z,49.90
2018-07-20T15:18:24.825Z,50.30
2018-07-20T15:20:53.704Z,50.10
2018-07-20T15:23:22.611Z,50.20
2018-07-20T15:25:51.415Z,50.80
2018-07-20T15:28:20.312Z,51.30
2018-07-20T15:30:49.192Z,51.70
2018-07-20T15:33:18.105Z,51.80
2018-07-20T15:35:46.932Z,51.70
2018-07-20T15:40:44.304Z,52.60
2018-07-20T15:43:13.187Z,51.90
2018-07-20T15:45:51.816Z,52.40
2018-07-20T15:48:10.958Z,52.90
2018-07-20T15:50:39.791Z,54.50
2018-07-20T15:53:37.055Z,57.40
2018-07-20T15:55:38.636Z,64.40
2018-07-20T15:58:07.491Z,70.20
2018-07-20T16:00:36.376Z,72.90
2018-07-20T16:03:05.256Z,73.10
2018-07-20T16:05:34.182Z,77.70
2018-07-20T16:08:03.028Z,83.40
2018-07-20T16:10:32.002Z,91.40
2018-07-20T16:13:00.867Z,94.00
2018-07-20T16:15:29.825Z,97.90
2018-07-20T16:17:58.776Z,99.90
2018-07-20T16:20:27.612Z,99.90
2018-07-20T16:22:56.465Z,99.90
2018-07-20T16:25:25.344Z,99.90
2018-07-20T16:27:54.239Z,99.90
2018-07-20T16:30:23.076Z,99.90
2018-07-20T16:32:51.936Z,99.90
2018-07-20T16:35:20.853Z,99.90
2018-07-20T16:37:49.708Z,99.90
2018-07-20T16:40:18.562Z,99.90
2018-07-20T16:42:47.454Z,99.90
2018-07-20T16:45:16.403Z,99.90
2018-07-20T16:55:10.972Z,99.90
2018-07-20T16:57:39.824Z,99.90
2018-07-20T17:02:37.829Z,99.90
2018-07-20T17:05:06.798Z,99.90
2018-07-20T17:07:35.738Z,99.40
2018-07-20T17:10:05.507Z,99.20
2018-07-20T17:12:34.590Z,99.00
2018-07-20T17:15:03.884Z,99.10
2018-07-20T17:17:32.781Z,99.00
2018-07-20T17:20:01.693Z,98.90
2018-07-20T17:22:30.544Z,99.30
2018-07-20T17:24:59.424Z,98.60
2018-07-20T17:27:28.277Z,98.80
2018-07-20T17:29:57.544Z,99.00
2018-07-20T17:32:26.384Z,99.50
2018-07-20T17:34:55.221Z,99.90
2018-07-20T17:37:24.204Z,99.90
2018-07-20T17:39:53.069Z,99.90
2018-07-20T17:42:22.040Z,99.90
2018-07-20T17:44:50.951Z,99.90
2018-07-20T17:47:19.852Z,99.90
2018-07-20T17:49:48.824Z,99.90
2018-07-20T17:52:17.824Z,99.90
2018-07-20T17:54:46.871Z,99.90
2018-07-20T17:57:15.784Z,99.90
2018-07-20T17:59:44.648Z,99.90
2018-07-20T18:02:13.527Z,99.90
2018-07-20T18:04:42.356Z,99.90
2018-07-20T18:07:14.484Z,99.90
2018-07-20T18:09:43.436Z,99.90
2018-07-20T18:12:12.409Z,99.90
2018-07-20T18:14:41.369Z,99.90
2018-07-20T18:17:10.265Z,99.90
2018-07-20T18:19:39.186Z,99.80
2018-07-20T18:22:08.197Z,99.60
2018-07-20T18:24:37.085Z,99.70
2018-07-20T18:27:06.041Z,99.90
2018-07-20T18:29:34.878Z,99.90
2018-07-20T18:32:03.728Z,99.90
2018-07-20T18:34:32.649Z,99.90
2018-07-20T18:37:01.636Z,99.90
2018-07-20T18:39:30.548Z,99.90
2018-07-20T18:41:59.506Z,99.90
2018-07-20T18:44:28.384Z,99.90
2018-07-20T18:46:57.250Z,99.90
2018-07-20T18:49:26.164Z,99.90
2018-07-20T18:51:55.046Z,99.70
2018-07-20T18:54:23.950Z,99.90
2018-07-20T18:56:52.802Z,99.70
2018-07-20T18:59:21.761Z,99.90
2018-07-20T19:01:50.634Z,99.90
2018-07-20T19:04:19.485Z,99.90
2018-07-20T19:06:48.409Z,99.90
2018-07-20T19:11:45.923Z,99.90
2018-07-20T19:14:14.813Z,99.90
2018-07-20T19:16:43.792Z,99.90
2018-07-20T19:19:12.665Z,99.90
2018-07-20T19:21:41.583Z,99.90
2018-07-20T19:24:10.554Z,99.90
2018-07-20T19:26:39.480Z,99.90
2018-07-20T19:29:08.360Z,99.90
2018-07-20T19:31:37.240Z,99.90
2018-07-20T19:34:06.288Z,99.90
2018-07-20T19:36:35.193Z,99.90
2018-07-20T19:39:07.311Z,99.90
2018-07-20T19:44:04.790Z,99.90
2018-07-20T19:46:33.775Z,99.90
2018-07-20T19:49:02.773Z,99.90
2018-07-20T19:51:31.747Z,99.90
2018-07-20T19:54:00.871Z,99.90
2018-07-20T19:56:29.796Z,99.90
2018-07-20T19:58:58.705Z,99.90
2018-07-20T20:01:27.600Z,99.90
2018-07-20T20:03:57.549Z,99.90
2018-07-20T20:06:26.479Z,99.90
2018-07-20T20:08:55.487Z,99.90
2018-07-20T20:11:24.416Z,99.90
2018-07-20T20:13:53.283Z,99.90
2018-07-20T20:16:22.241Z,99.90
2018-07-20T20:18:51.120Z,99.90
2018-07-20T20:21:20.153Z,99.90
2018-07-20T20:23:49.128Z,99.90
2018-07-20T20:26:18.030Z,99.90
2018-07-20T20:28:46.945Z,99.90
2018-07-20T20:31:15.825Z,99.90
2018-07-20T20:33:44.820Z,99.90
2018-07-20T20:36:13.704Z,99.90
2018-07-20T20:38:42.531Z,99.90
2018-07-20T20:41:11.675Z,99.90
2018-07-20T20:43:40.684Z,99.90
2018-07-20T20:46:09.553Z,99.90
2018-07-20T20:48:38.678Z,99.90
2018-07-20T20:51:07.545Z,99.90
2018-07-20T20:53:36.500Z,99.90
2018-07-20T20:56:05.592Z,99.90
2018-07-20T20:58:34.539Z,99.90
2018-07-20T21:01:03.377Z,99.90
2018-07-20T21:03:32.276Z,99.90
2018-07-20T21:06:01.192Z,99.90
2018-07-20T21:08:30.062Z,99.90
2018-07-20T21:10:59.007Z,99.90
2018-07-20T21:13:27.928Z,99.90
2018-07-20T21:15:56.879Z,99.90
2018-07-20T21:18:25.720Z,99.90
2018-07-20T21:20:54.609Z,99.90
2018-07-20T21:23:23.513Z,99.90
2018-07-20T21:25:52.568Z,99.90
2018-07-20T21:28:21.431Z,99.90
2018-07-20T21:30:50.300Z,99.90
2018-07-20T21:33:19.189Z,99.90
2018-07-20T21:35:48.043Z,99.90
2018-07-20T21:38:16.898Z,99.90
2018-07-20T21:40:45.773Z,99.90
2018-07-20T21:43:14.682Z,99.90
2018-07-20T21:45:43.616Z,99.90
2018-07-20T21:48:12.468Z,99.90
2018-07-20T21:50:41.520Z,99.90
2018-07-20T21:53:10.408Z,99.90
2018-07-20T21:55:39.302Z,99.90
2018-07-20T21:58:08.162Z,99.90
2018-07-20T22:00:37.056Z,99.90
2018-07-20T22:03:05.941Z,99.90
2018-07-20T22:05:34.815Z,99.90
2018-07-20T22:08:03.700Z,99.90
2018-07-20T22:10:32.550Z,99.90
2018-07-20T22:13:01.445Z,99.90
2018-07-20T22:15:30.324Z,99.90
2018-07-20T22:17:59.262Z,99.90
2018-07-20T22:20:28.071Z,99.90
2018-07-20T22:22:56.959Z,99.90
2018-07-20T22:25:25.832Z,99.90
2018-07-20T22:27:54.728Z,99.90
2018-07-20T22:30:23.592Z,99.90
2018-07-20T22:32:52.461Z,99.90
2018-07-20T22:35:21.329Z,99.90
2018-07-20T22:37:50.200Z,99.90
2018-07-20T22:40:19.056Z,99.90
2018-07-20T22:42:47.947Z,99.90
2018-07-20T22:45:16.803Z,99.90
2018-07-20T22:47:45.671Z,99.90
2018-07-20T22:50:14.643Z,99.90
2018-07-20T22:52:43.533Z,99.90
2018-07-20T22:55:12.416Z,99.90
2018-07-20T22:57:41.271Z,99.90
2018-07-20T23:00:10.206Z,99.90
2018-07-20T23:02:39.097Z,99.90
2018-07-20T23:05:07.923Z,99.90
2018-07-20T23:07:36.861Z,99.90
2018-07-20T23:10:05.744Z,99.90
2018-07-20T23:12:34.616Z,99.90
2018-07-20T23:15:03.568Z,99.90
2018-07-20T23:17:32.420Z,99.90
2018-07-20T23:20:01.300Z,99.90
2018-07-20T23:22:30.178Z,99.90
2018-07-20T23:24:59.035Z,99.90
2018-07-20T23:27:27.920Z,99.90
2018-07-20T23:29:56.778Z,99.90
2018-07-20T23:32:25.647Z,99.90
2018-07-20T23:34:54.509Z,99.90
2018-07-20T23:37:23.474Z,99.90
2018-07-20T23:39:52.304Z,99.90
2018-07-20T23:42:21.188Z,99.90
2018-07-20T23:44:50.093Z,99.90
2018-07-20T23:47:18.980Z,99.90
2018-07-20T23:49:47.912Z,99.90
2018-07-20T23:52:16.791Z,99.90
2018-07-20T23:54:45.661Z,99.90
2018-07-20T23:57:14.524Z,99.90
